Main page
METAR-TAF:

METAR-TAF

Airports :

Cluj International Airport

Cluj-Napoca, Romania

latitude: 46-47N, longitude: 023-34E, elevation: 315 m

Current weather observation

The report was made 28 minutes ago, at 09:30 UTC
Wind 27 kt from the Northwest with gusts up to 37 kt
Temperature 7°C
Humidity 53%
Pressure 1014 hPa
Visibility 10 km or more
Few clouds at a height of 4600 ft
Scattered clouds at a height of 5100 ft

METAR: LRCL 240930Z 31027G37KT 9999 FEW046 SCT051 07/M02 Q1014

Time: 11:58 (09:58 UTC)

Forecast

The report was made 1 hour and 58 minutes ago, at 08:00 UTC
Forecast valid from 24 at 09 UTC to 24 at 18 UTC
Wind 20 kt from the Northwest
Visibility 10 km or more
Scattered clouds at a height of 3000 ft
Temporary
from 24 at 09 UTC to 24 at 12 UTC
Wind 25 kt from the Northwest with gusts up to 40 kt
Becoming
from 24 at 16 UTC to 24 at 18 UTC
Wind 8 kt from the West

TAF: LRCL 240800Z 2409/2418 31020KT 9999 SCT030 TEMPO 2409/2412 31025G40KT BECMG 2416/2418 28008KT

Weather observations and forecasts of more than 4000 airports (METAR and TAF reports).

The available stations are represented by yellow and red dots on the map.

Hover mouse over dot to see the name of the station.

Then click to see weather observations and forecasts.

To change the map : click on the green buttons with a black cross to zoom in, on the green button with a dash to zoom out, or on the green arrows for adjacent maps.


METAR-TAF: